sensor_id;sensor_type;location;lat;lon;timestamp;P1;durP1;ratioP1;P2;durP2;ratioP2
40501;SDS011;29631;49.168;9.848;2023-02-01T00:01:59;1.67;;;1.52;;
40501;SDS011;29631;49.168;9.848;2023-02-01T00:04:26;1.42;;;1.42;;
40501;SDS011;29631;49.168;9.848;2023-02-01T00:06:52;1.30;;;1.30;;
40501;SDS011;29631;49.168;9.848;2023-02-01T00:09:18;1.60;;;1.50;;
40501;SDS011;29631;49.168;9.848;2023-02-01T00:11:44;1.60;;;1.50;;
40501;SDS011;29631;49.168;9.848;2023-02-01T00:14:10;1.45;;;1.38;;
40501;SDS011;29631;49.168;9.848;2023-02-01T00:16:36;1.25;;;1.25;;
40501;SDS011;29631;49.168;9.848;2023-02-01T00:19:03;1.52;;;1.40;;
40501;SDS011;29631;49.168;9.848;2023-02-01T00:21:34;1.30;;;1.20;;
40501;SDS011;29631;49.168;9.848;2023-02-01T00:24:00;1.70;;;1.60;;
40501;SDS011;29631;49.168;9.848;2023-02-01T00:29:04;1.60;;;1.50;;
40501;SDS011;29631;49.168;9.848;2023-02-01T00:31:35;1.60;;;1.50;;
40501;SDS011;29631;49.168;9.848;2023-02-01T00:34:01;2.05;;;1.60;;
40501;SDS011;29631;49.168;9.848;2023-02-01T00:36:27;1.70;;;1.60;;
40501;SDS011;29631;49.168;9.848;2023-02-01T00:38:53;1.20;;;1.20;;
40501;SDS011;29631;49.168;9.848;2023-02-01T00:41:19;1.42;;;1.33;;
40501;SDS011;29631;49.168;9.848;2023-02-01T00:43:46;2.88;;;1.45;;
40501;SDS011;29631;49.168;9.848;2023-02-01T00:46:13;1.42;;;1.33;;
40501;SDS011;29631;49.168;9.848;2023-02-01T00:48:41;1.30;;;1.30;;
40501;SDS011;29631;49.168;9.848;2023-02-01T00:51:07;1.60;;;1.10;;
40501;SDS011;29631;49.168;9.848;2023-02-01T00:53:39;1.48;;;1.48;;
40501;SDS011;29631;49.168;9.848;2023-02-01T00:56:05;1.60;;;1.50;;
40501;SDS011;29631;49.168;9.848;2023-02-01T00:58:32;1.45;;;1.35;;
40501;SDS011;29631;49.168;9.848;2023-02-01T01:01:02;1.70;;;1.60;;
40501;SDS011;29631;49.168;9.848;2023-02-01T01:03:55;1.30;;;1.30;;
40501;SDS011;29631;49.168;9.848;2023-02-01T01:06:27;1.50;;;1.40;;
40501;SDS011;29631;49.168;9.848;2023-02-01T01:08:56;1.38;;;1.27;;
40501;SDS011;29631;49.168;9.848;2023-02-01T01:11:25;1.20;;;1.20;;
40501;SDS011;29631;49.168;9.848;2023-02-01T01:13:54;1.23;;;1.23;;
40501;SDS011;29631;49.168;9.848;2023-02-01T01:16:23;1.70;;;1.30;;
40501;SDS011;29631;49.168;9.848;2023-02-01T01:18:51;1.33;;;1.30;;
40501;SDS011;29631;49.168;9.848;2023-02-01T01:21:18;1.20;;;1.20;;
40501;SDS011;29631;49.168;9.848;2023-02-01T01:23:44;1.52;;;1.42;;
40501;SDS011;29631;49.168;9.848;2023-02-01T01:26:18;1.10;;;1.10;;
40501;SDS011;29631;49.168;9.848;2023-02-01T01:28:47;1.25;;;1.25;;
40501;SDS011;29631;49.168;9.848;2023-02-01T01:31:15;1.42;;;1.38;;
40501;SDS011;29631;49.168;9.848;2023-02-01T01:33:43;1.30;;;1.30;;
40501;SDS011;29631;49.168;9.848;2023-02-01T01:36:12;1.38;;;1.30;;
40501;SDS011;29631;49.168;9.848;2023-02-01T01:38:38;1.50;;;1.40;;
40501;SDS011;29631;49.168;9.848;2023-02-01T01:41:05;1.58;;;1.50;;
40501;SDS011;29631;49.168;9.848;2023-02-01T01:47:13;1.20;;;1.20;;
40501;SDS011;29631;49.168;9.848;2023-02-01T01:49:40;1.35;;;1.30;;
40501;SDS011;29631;49.168;9.848;2023-02-01T01:52:06;1.30;;;1.30;;
40501;SDS011;29631;49.168;9.848;2023-02-01T01:54:34;1.60;;;1.50;;
40501;SDS011;29631;49.168;9.848;2023-02-01T01:57:16;1.35;;;1.35;;
40501;SDS011;29631;49.168;9.848;2023-02-01T01:59:50;1.48;;;1.38;;
40501;SDS011;29631;49.168;9.848;2023-02-01T02:02:25;1.80;;;1.70;;
40501;SDS011;29631;49.168;9.848;2023-02-01T02:04:51;1.60;;;1.52;;
40501;SDS011;29631;49.168;9.848;2023-02-01T02:07:21;1.10;;;1.10;;
40501;SDS011;29631;49.168;9.848;2023-02-01T02:09:52;1.58;;;1.48;;
40501;SDS011;29631;49.168;9.848;2023-02-01T02:12:19;1.60;;;1.50;;
40501;SDS011;29631;49.168;9.848;2023-02-01T02:14:44;1.65;;;1.55;;
40501;SDS011;29631;49.168;9.848;2023-02-01T02:34:57;1.30;;;1.30;;
40501;SDS011;29631;49.168;9.848;2023-02-01T02:37:47;1.45;;;1.38;;
40501;SDS011;29631;49.168;9.848;2023-02-01T02:40:45;1.40;;;1.40;;
40501;SDS011;29631;49.168;9.848;2023-02-01T02:43:25;1.85;;;1.75;;
40501;SDS011;29631;49.168;9.848;2023-02-01T02:46:22;1.90;;;1.80;;
40501;SDS011;29631;49.168;9.848;2023-02-01T02:49:15;1.48;;;1.40;;
40501;SDS011;29631;49.168;9.848;2023-02-01T02:52:13;1.67;;;1.58;;
40501;SDS011;29631;49.168;9.848;2023-02-01T02:55:02;1.80;;;1.70;;
40501;SDS011;29631;49.168;9.848;2023-02-01T02:57:32;1.80;;;1.70;;
40501;SDS011;29631;49.168;9.848;2023-02-01T03:00:25;1.55;;;1.50;;
40501;SDS011;29631;49.168;9.848;2023-02-01T03:03:14;2.85;;;2.65;;
40501;SDS011;29631;49.168;9.848;2023-02-01T03:05:58;2.40;;;2.20;;
40501;SDS011;29631;49.168;9.848;2023-02-01T03:08:25;1.98;;;1.88;;
40501;SDS011;29631;49.168;9.848;2023-02-01T03:11:02;1.70;;;1.60;;
40501;SDS011;29631;49.168;9.848;2023-02-01T03:16:26;1.30;;;1.30;;
40501;SDS011;29631;49.168;9.848;2023-02-01T03:24:30;1.52;;;1.42;;
40501;SDS011;29631;49.168;9.848;2023-02-01T03:30:03;1.60;;;1.50;;
40501;SDS011;29631;49.168;9.848;2023-02-01T03:32:46;2.33;;;1.40;;
40501;SDS011;29631;49.168;9.848;2023-02-01T03:35:26;1.60;;;1.52;;
40501;SDS011;29631;49.168;9.848;2023-02-01T03:41:28;1.50;;;1.40;;
40501;SDS011;29631;49.168;9.848;2023-02-01T03:44:02;1.52;;;1.42;;
40501;SDS011;29631;49.168;9.848;2023-02-01T03:46:38;1.30;;;1.30;;
40501;SDS011;29631;49.168;9.848;2023-02-01T03:49:18;1.58;;;1.48;;
40501;SDS011;29631;49.168;9.848;2023-02-01T03:51:56;1.60;;;1.50;;
40501;SDS011;29631;49.168;9.848;2023-02-01T03:54:28;1.25;;;1.25;;
40501;SDS011;29631;49.168;9.848;2023-02-01T03:56:56;1.60;;;1.50;;
40501;SDS011;29631;49.168;9.848;2023-02-01T03:59:29;1.60;;;1.50;;
40501;SDS011;29631;49.168;9.848;2023-02-01T04:01:55;1.58;;;1.55;;
40501;SDS011;29631;49.168;9.848;2023-02-01T04:04:21;1.40;;;1.35;;
40501;SDS011;29631;49.168;9.848;2023-02-01T04:06:47;1.40;;;1.40;;
40501;SDS011;29631;49.168;9.848;2023-02-01T04:09:16;1.83;;;1.73;;
40501;SDS011;29631;49.168;9.848;2023-02-01T04:11:42;1.60;;;1.50;;
40501;SDS011;29631;49.168;9.848;2023-02-01T04:14:08;1.40;;;1.40;;
40501;SDS011;29631;49.168;9.848;2023-02-01T04:16:34;1.42;;;1.35;;
40501;SDS011;29631;49.168;9.848;2023-02-01T04:19:00;1.73;;;1.63;;
40501;SDS011;29631;49.168;9.848;2023-02-01T04:21:26;1.60;;;1.50;;
40501;SDS011;29631;49.168;9.848;2023-02-01T04:23:52;1.65;;;1.58;;
40501;SDS011;29631;49.168;9.848;2023-02-01T04:26:19;1.48;;;1.48;;
40501;SDS011;29631;49.168;9.848;2023-02-01T04:28:46;1.40;;;1.40;;
40501;SDS011;29631;49.168;9.848;2023-02-01T04:31:16;1.60;;;1.50;;
40501;SDS011;29631;49.168;9.848;2023-02-01T04:33:43;1.63;;;1.52;;
40501;SDS011;29631;49.168;9.848;2023-02-01T04:36:09;1.98;;;1.30;;
40501;SDS011;29631;49.168;9.848;2023-02-01T04:38:35;1.70;;;1.60;;
40501;SDS011;29631;49.168;9.848;2023-02-01T04:41:01;1.50;;;1.40;;
40501;SDS011;29631;49.168;9.848;2023-02-01T04:43:27;1.27;;;1.27;;
40501;SDS011;29631;49.168;9.848;2023-02-01T04:45:52;1.67;;;1.58;;
40501;SDS011;29631;49.168;9.848;2023-02-01T04:48:19;1.77;;;1.67;;
40501;SDS011;29631;49.168;9.848;2023-02-01T04:50:46;1.70;;;1.70;;
40501;SDS011;29631;49.168;9.848;2023-02-01T04:53:14;1.73;;;1.70;;
40501;SDS011;29631;49.168;9.848;2023-02-01T04:55:40;1.63;;;1.52;;
40501;SDS011;29631;49.168;9.848;2023-02-01T04:58:07;1.83;;;1.73;;
40501;SDS011;29631;49.168;9.848;2023-02-01T05:00:34;2.15;;;1.60;;
40501;SDS011;29631;49.168;9.848;2023-02-01T05:03:00;2.20;;;1.90;;
40501;SDS011;29631;49.168;9.848;2023-02-01T05:05:26;2.03;;;1.92;;
40501;SDS011;29631;49.168;9.848;2023-02-01T05:07:52;1.90;;;1.80;;
40501;SDS011;29631;49.168;9.848;2023-02-01T05:10:19;1.80;;;1.70;;
40501;SDS011;29631;49.168;9.848;2023-02-01T05:12:45;1.75;;;1.65;;
40501;SDS011;29631;49.168;9.848;2023-02-01T05:15:29;1.75;;;1.65;;
40501;SDS011;29631;49.168;9.848;2023-02-01T05:17:55;1.92;;;1.83;;
40501;SDS011;29631;49.168;9.848;2023-02-01T05:20:22;2.42;;;2.25;;
40501;SDS011;29631;49.168;9.848;2023-02-01T05:22:48;2.15;;;1.98;;
40501;SDS011;29631;49.168;9.848;2023-02-01T05:25:13;3.08;;;2.88;;
40501;SDS011;29631;49.168;9.848;2023-02-01T05:27:39;2.05;;;1.95;;
40501;SDS011;29631;49.168;9.848;2023-02-01T05:30:05;2.00;;;1.83;;
40501;SDS011;29631;49.168;9.848;2023-02-01T05:32:33;2.20;;;2.00;;
40501;SDS011;29631;49.168;9.848;2023-02-01T05:34:59;2.00;;;1.90;;
40501;SDS011;29631;49.168;9.848;2023-02-01T05:37:25;1.90;;;1.80;;
40501;SDS011;29631;49.168;9.848;2023-02-01T05:39:51;2.72;;;1.83;;
40501;SDS011;29631;49.168;9.848;2023-02-01T05:42:16;2.45;;;1.90;;
40501;SDS011;29631;49.168;9.848;2023-02-01T05:44:42;1.98;;;1.88;;
40501;SDS011;29631;49.168;9.848;2023-02-01T05:47:08;2.85;;;1.90;;
40501;SDS011;29631;49.168;9.848;2023-02-01T05:49:34;2.20;;;2.10;;
40501;SDS011;29631;49.168;9.848;2023-02-01T05:52:00;2.45;;;1.80;;
40501;SDS011;29631;49.168;9.848;2023-02-01T05:54:25;1.73;;;1.67;;
40501;SDS011;29631;49.168;9.848;2023-02-01T05:56:51;1.98;;;1.80;;
40501;SDS011;29631;49.168;9.848;2023-02-01T05:59:17;1.88;;;1.77;;
40501;SDS011;29631;49.168;9.848;2023-02-01T06:01:43;2.03;;;1.92;;
40501;SDS011;29631;49.168;9.848;2023-02-01T06:04:08;5.60;;;4.53;;
40501;SDS011;29631;49.168;9.848;2023-02-01T06:06:34;3.40;;;3.10;;
40501;SDS011;29631;49.168;9.848;2023-02-01T06:09:02;2.83;;;2.53;;
40501;SDS011;29631;49.168;9.848;2023-02-01T06:11:28;2.78;;;2.17;;
40501;SDS011;29631;49.168;9.848;2023-02-01T06:13:54;3.40;;;3.20;;
40501;SDS011;29631;49.168;9.848;2023-02-01T06:16:20;2.45;;;2.33;;
40501;SDS011;29631;49.168;9.848;2023-02-01T06:18:47;2.40;;;2.20;;
40501;SDS011;29631;49.168;9.848;2023-02-01T06:21:13;1.85;;;1.75;;
40501;SDS011;29631;49.168;9.848;2023-02-01T06:23:40;1.77;;;1.67;;
40501;SDS011;29631;49.168;9.848;2023-02-01T06:26:07;1.95;;;1.80;;
40501;SDS011;29631;49.168;9.848;2023-02-01T06:28:34;1.50;;;1.50;;
40501;SDS011;29631;49.168;9.848;2023-02-01T06:31:03;1.88;;;1.77;;
40501;SDS011;29631;49.168;9.848;2023-02-01T06:33:31;1.33;;;1.33;;
40501;SDS011;29631;49.168;9.848;2023-02-01T06:36:01;1.75;;;1.65;;
40501;SDS011;29631;49.168;9.848;2023-02-01T06:38:31;1.48;;;1.38;;
40501;SDS011;29631;49.168;9.848;2023-02-01T06:40:59;1.88;;;1.77;;
40501;SDS011;29631;49.168;9.848;2023-02-01T06:43:26;2.13;;;2.03;;
40501;SDS011;29631;49.168;9.848;2023-02-01T06:45:53;1.70;;;1.60;;
40501;SDS011;29631;49.168;9.848;2023-02-01T06:48:24;1.60;;;1.48;;
40501;SDS011;29631;49.168;9.848;2023-02-01T06:50:49;2.10;;;1.90;;
40501;SDS011;29631;49.168;9.848;2023-02-01T06:53:15;3.47;;;2.20;;
40501;SDS011;29631;49.168;9.848;2023-02-01T06:55:41;2.10;;;1.90;;
40501;SDS011;29631;49.168;9.848;2023-02-01T06:58:17;2.20;;;1.90;;
40501;SDS011;29631;49.168;9.848;2023-02-01T07:00:42;2.00;;;1.90;;
40501;SDS011;29631;49.168;9.848;2023-02-01T07:03:08;1.80;;;1.70;;
40501;SDS011;29631;49.168;9.848;2023-02-01T07:05:34;1.90;;;1.77;;
40501;SDS011;29631;49.168;9.848;2023-02-01T07:07:59;1.80;;;1.70;;
40501;SDS011;29631;49.168;9.848;2023-02-01T07:10:25;1.70;;;1.60;;
40501;SDS011;29631;49.168;9.848;2023-02-01T07:12:51;1.90;;;1.80;;
40501;SDS011;29631;49.168;9.848;2023-02-01T07:15:17;2.10;;;2.00;;
40501;SDS011;29631;49.168;9.848;2023-02-01T07:17:42;2.63;;;2.33;;
40501;SDS011;29631;49.168;9.848;2023-02-01T07:20:09;2.05;;;1.95;;
40501;SDS011;29631;49.168;9.848;2023-02-01T07:22:35;1.98;;;1.88;;
40501;SDS011;29631;49.168;9.848;2023-02-01T07:25:01;2.20;;;2.03;;
40501;SDS011;29631;49.168;9.848;2023-02-01T07:27:27;2.42;;;2.28;;
40501;SDS011;29631;49.168;9.848;2023-02-01T07:29:53;2.33;;;2.10;;
40501;SDS011;29631;49.168;9.848;2023-02-01T07:32:20;2.38;;;1.95;;
40501;SDS011;29631;49.168;9.848;2023-02-01T07:34:46;2.92;;;2.30;;
40501;SDS011;29631;49.168;9.848;2023-02-01T07:37:11;2.42;;;2.22;;
40501;SDS011;29631;49.168;9.848;2023-02-01T07:39:37;2.25;;;2.08;;
40501;SDS011;29631;49.168;9.848;2023-02-01T07:42:03;2.50;;;2.22;;
40501;SDS011;29631;49.168;9.848;2023-02-01T07:44:29;2.75;;;2.55;;
40501;SDS011;29631;49.168;9.848;2023-02-01T07:46:54;2.22;;;2.03;;
40501;SDS011;29631;49.168;9.848;2023-02-01T07:49:20;2.20;;;2.10;;
40501;SDS011;29631;49.168;9.848;2023-02-01T07:51:45;2.13;;;1.95;;
40501;SDS011;29631;49.168;9.848;2023-02-01T07:54:11;1.98;;;1.88;;
40501;SDS011;29631;49.168;9.848;2023-02-01T07:56:37;2.47;;;2.10;;
40501;SDS011;29631;49.168;9.848;2023-02-01T07:59:03;2.30;;;2.10;;
40501;SDS011;29631;49.168;9.848;2023-02-01T08:01:28;2.10;;;1.98;;
40501;SDS011;29631;49.168;9.848;2023-02-01T08:03:58;4.28;;;2.30;;
40501;SDS011;29631;49.168;9.848;2023-02-01T08:06:26;2.60;;;2.15;;
40501;SDS011;29631;49.168;9.848;2023-02-01T08:08:55;2.25;;;2.10;;
40501;SDS011;29631;49.168;9.848;2023-02-01T08:11:22;2.40;;;2.20;;
40501;SDS011;29631;49.168;9.848;2023-02-01T08:13:49;2.35;;;1.75;;
40501;SDS011;29631;49.168;9.848;2023-02-01T08:16:17;3.40;;;2.30;;
40501;SDS011;29631;49.168;9.848;2023-02-01T08:18:44;3.42;;;1.80;;
40501;SDS011;29631;49.168;9.848;2023-02-01T08:21:11;4.38;;;2.03;;
40501;SDS011;29631;49.168;9.848;2023-02-01T08:23:40;2.03;;;1.92;;
40501;SDS011;29631;49.168;9.848;2023-02-01T08:26:20;2.10;;;1.92;;
40501;SDS011;29631;49.168;9.848;2023-02-01T08:28:53;1.98;;;1.70;;
40501;SDS011;29631;49.168;9.848;2023-02-01T08:31:23;2.55;;;1.77;;
40501;SDS011;29631;49.168;9.848;2023-02-01T08:33:53;1.83;;;1.70;;
40501;SDS011;29631;49.168;9.848;2023-02-01T08:36:22;2.00;;;1.80;;
40501;SDS011;29631;49.168;9.848;2023-02-01T08:38:49;4.35;;;2.15;;
40501;SDS011;29631;49.168;9.848;2023-02-01T08:41:20;1.95;;;1.75;;
40501;SDS011;29631;49.168;9.848;2023-02-01T08:43:51;1.92;;;1.67;;
40501;SDS011;29631;49.168;9.848;2023-02-01T08:46:19;2.28;;;1.70;;
40501;SDS011;29631;49.168;9.848;2023-02-01T08:48:45;2.30;;;1.90;;
40501;SDS011;29631;49.168;9.848;2023-02-01T08:51:12;2.30;;;2.10;;
40501;SDS011;29631;49.168;9.848;2023-02-01T08:53:41;3.95;;;2.10;;
40501;SDS011;29631;49.168;9.848;2023-02-01T08:56:08;2.22;;;2.03;;
40501;SDS011;29631;49.168;9.848;2023-02-01T08:58:36;2.60;;;2.15;;
40501;SDS011;29631;49.168;9.848;2023-02-01T09:01:03;3.13;;;2.03;;
40501;SDS011;29631;49.168;9.848;2023-02-01T09:03:31;3.25;;;1.98;;
40501;SDS011;29631;49.168;9.848;2023-02-01T09:06:04;4.70;;;1.92;;
40501;SDS011;29631;49.168;9.848;2023-02-01T09:08:33;2.65;;;2.20;;
40501;SDS011;29631;49.168;9.848;2023-02-01T09:11:00;4.32;;;2.20;;
40501;SDS011;29631;49.168;9.848;2023-02-01T09:13:28;4.97;;;2.70;;
40501;SDS011;29631;49.168;9.848;2023-02-01T09:15:54;4.03;;;1.92;;
40501;SDS011;29631;49.168;9.848;2023-02-01T09:18:20;2.90;;;2.08;;
40501;SDS011;29631;49.168;9.848;2023-02-01T09:20:46;4.75;;;2.50;;
40501;SDS011;29631;49.168;9.848;2023-02-01T09:23:12;3.55;;;1.98;;
40501;SDS011;29631;49.168;9.848;2023-02-01T09:25:37;3.13;;;2.13;;
40501;SDS011;29631;49.168;9.848;2023-02-01T09:28:04;2.03;;;1.75;;
40501;SDS011;29631;49.168;9.848;2023-02-01T09:30:34;4.43;;;2.05;;
40501;SDS011;29631;49.168;9.848;2023-02-01T09:33:01;2.70;;;2.28;;
40501;SDS011;29631;49.168;9.848;2023-02-01T09:35:28;3.58;;;2.20;;
40501;SDS011;29631;49.168;9.848;2023-02-01T09:37:54;6.15;;;2.65;;
40501;SDS011;29631;49.168;9.848;2023-02-01T09:40:20;5.00;;;2.55;;
40501;SDS011;29631;49.168;9.848;2023-02-01T09:42:57;3.80;;;2.40;;
40501;SDS011;29631;49.168;9.848;2023-02-01T09:48:54;6.47;;;3.35;;
40501;SDS011;29631;49.168;9.848;2023-02-01T09:51:27;4.95;;;3.45;;
40501;SDS011;29631;49.168;9.848;2023-02-01T09:54:09;3.83;;;3.15;;
40501;SDS011;29631;49.168;9.848;2023-02-01T10:02:11;5.15;;;3.58;;
40501;SDS011;29631;49.168;9.848;2023-02-01T10:04:44;5.30;;;3.20;;
40501;SDS011;29631;49.168;9.848;2023-02-01T10:07:24;3.63;;;2.97;;
40501;SDS011;29631;49.168;9.848;2023-02-01T10:10:11;4.80;;;3.08;;
40501;SDS011;29631;49.168;9.848;2023-02-01T10:13:12;7.75;;;5.95;;
40501;SDS011;29631;49.168;9.848;2023-02-01T10:16:16;6.85;;;3.38;;
40501;SDS011;29631;49.168;9.848;2023-02-01T10:21:48;4.85;;;2.25;;
40501;SDS011;29631;49.168;9.848;2023-02-01T10:27:22;4.05;;;2.28;;
40501;SDS011;29631;49.168;9.848;2023-02-01T10:29:59;3.67;;;2.20;;
40501;SDS011;29631;49.168;9.848;2023-02-01T10:32:35;4.22;;;2.10;;
40501;SDS011;29631;49.168;9.848;2023-02-01T10:35:02;4.22;;;2.45;;
40501;SDS011;29631;49.168;9.848;2023-02-01T10:37:39;6.38;;;2.80;;
40501;SDS011;29631;49.168;9.848;2023-02-01T10:43:00;5.05;;;2.65;;
40501;SDS011;29631;49.168;9.848;2023-02-01T10:45:28;4.60;;;2.88;;
40501;SDS011;29631;49.168;9.848;2023-02-01T10:47:57;6.07;;;3.20;;
40501;SDS011;29631;49.168;9.848;2023-02-01T10:56:06;4.63;;;2.78;;
40501;SDS011;29631;49.168;9.848;2023-02-01T10:58:34;5.72;;;2.50;;
40501;SDS011;29631;49.168;9.848;2023-02-01T11:01:08;3.90;;;2.30;;
40501;SDS011;29631;49.168;9.848;2023-02-01T11:03:54;4.45;;;1.98;;
40501;SDS011;29631;49.168;9.848;2023-02-01T11:11:33;5.65;;;2.40;;
40501;SDS011;29631;49.168;9.848;2023-02-01T11:16:49;3.78;;;2.28;;
40501;SDS011;29631;49.168;9.848;2023-02-01T11:19:20;4.63;;;2.50;;
40501;SDS011;29631;49.168;9.848;2023-02-01T11:21:50;6.03;;;2.80;;
40501;SDS011;29631;49.168;9.848;2023-02-01T11:27:01;4.57;;;2.50;;
40501;SDS011;29631;49.168;9.848;2023-02-01T11:29:37;2.05;;;1.83;;
40501;SDS011;29631;49.168;9.848;2023-02-01T11:32:05;4.57;;;1.90;;
40501;SDS011;29631;49.168;9.848;2023-02-01T11:34:37;3.50;;;2.25;;
40501;SDS011;29631;49.168;9.848;2023-02-01T11:37:17;5.15;;;1.98;;
40501;SDS011;29631;49.168;9.848;2023-02-01T11:40:44;3.75;;;2.00;;
40501;SDS011;29631;49.168;9.848;2023-02-01T11:43:22;3.00;;;1.88;;
40501;SDS011;29631;49.168;9.848;2023-02-01T11:45:54;5.60;;;2.15;;
40501;SDS011;29631;49.168;9.848;2023-02-01T11:48:26;4.97;;;2.22;;
40501;SDS011;29631;49.168;9.848;2023-02-01T11:56:37;4.60;;;2.35;;
40501;SDS011;29631;49.168;9.848;2023-02-01T12:05:34;4.93;;;1.98;;
40501;SDS011;29631;49.168;9.848;2023-02-01T12:08:28;3.00;;;1.83;;
40501;SDS011;29631;49.168;9.848;2023-02-01T12:11:24;3.85;;;1.80;;
40501;SDS011;29631;49.168;9.848;2023-02-01T12:14:28;3.63;;;1.63;;
40501;SDS011;29631;49.168;9.848;2023-02-01T12:17:17;4.50;;;1.88;;
40501;SDS011;29631;49.168;9.848;2023-02-01T12:20:25;2.63;;;1.80;;
40501;SDS011;29631;49.168;9.848;2023-02-01T12:27:05;4.60;;;2.10;;
40501;SDS011;29631;49.168;9.848;2023-02-01T12:29:59;3.15;;;2.05;;
40501;SDS011;29631;49.168;9.848;2023-02-01T12:32:40;3.30;;;2.10;;
40501;SDS011;29631;49.168;9.848;2023-02-01T12:38:42;4.15;;;2.22;;
40501;SDS011;29631;49.168;9.848;2023-02-01T12:41:22;4.65;;;2.67;;
40501;SDS011;29631;49.168;9.848;2023-02-01T12:53:00;6.43;;;2.35;;
40501;SDS011;29631;49.168;9.848;2023-02-01T12:55:55;4.55;;;2.30;;
40501;SDS011;29631;49.168;9.848;2023-02-01T13:07:33;4.90;;;3.35;;
40501;SDS011;29631;49.168;9.848;2023-02-01T13:10:24;7.50;;;4.03;;
40501;SDS011;29631;49.168;9.848;2023-02-01T13:13:42;7.40;;;4.03;;
40501;SDS011;29631;49.168;9.848;2023-02-01T13:19:14;7.13;;;4.38;;
40501;SDS011;29631;49.168;9.848;2023-02-01T13:27:38;5.90;;;3.15;;
40501;SDS011;29631;49.168;9.848;2023-02-01T13:30:12;4.07;;;2.35;;
40501;SDS011;29631;49.168;9.848;2023-02-01T13:38:44;4.40;;;2.75;;
40501;SDS011;29631;49.168;9.848;2023-02-01T13:41:30;4.05;;;2.75;;
40501;SDS011;29631;49.168;9.848;2023-02-01T13:44:11;5.75;;;3.05;;
40501;SDS011;29631;49.168;9.848;2023-02-01T13:46:41;8.18;;;3.25;;
40501;SDS011;29631;49.168;9.848;2023-02-01T13:49:23;5.32;;;3.00;;
40501;SDS011;29631;49.168;9.848;2023-02-01T13:51:54;6.22;;;3.75;;
40501;SDS011;29631;49.168;9.848;2023-02-01T13:54:23;8.02;;;3.15;;
40501;SDS011;29631;49.168;9.848;2023-02-01T13:56:53;6.00;;;3.00;;
40501;SDS011;29631;49.168;9.848;2023-02-01T14:05:08;3.53;;;2.17;;
40501;SDS011;29631;49.168;9.848;2023-02-01T14:29:20;4.53;;;1.70;;
40501;SDS011;29631;49.168;9.848;2023-02-01T14:34:56;3.47;;;2.35;;
40501;SDS011;29631;49.168;9.848;2023-02-01T14:37:29;4.82;;;2.85;;
40501;SDS011;29631;49.168;9.848;2023-02-01T14:39:59;4.22;;;2.20;;
40501;SDS011;29631;49.168;9.848;2023-02-01T14:50:31;10.38;;;5.80;;
40501;SDS011;29631;49.168;9.848;2023-02-01T14:55:40;8.25;;;4.50;;
40501;SDS011;29631;49.168;9.848;2023-02-01T14:58:26;7.50;;;3.92;;
40501;SDS011;29631;49.168;9.848;2023-02-01T15:01:32;11.20;;;6.93;;
40501;SDS011;29631;49.168;9.848;2023-02-01T15:04:09;8.25;;;4.93;;
40501;SDS011;29631;49.168;9.848;2023-02-01T15:14:40;8.32;;;3.83;;
40501;SDS011;29631;49.168;9.848;2023-02-01T15:17:28;5.72;;;2.47;;
40501;SDS011;29631;49.168;9.848;2023-02-01T15:19:59;13.38;;;5.55;;
40501;SDS011;29631;49.168;9.848;2023-02-01T15:22:56;10.80;;;4.30;;
40501;SDS011;29631;49.168;9.848;2023-02-01T15:25:28;11.52;;;6.85;;
40501;SDS011;29631;49.168;9.848;2023-02-01T15:28:01;8.27;;;5.07;;
40501;SDS011;29631;49.168;9.848;2023-02-01T15:30:32;11.90;;;6.68;;
40501;SDS011;29631;49.168;9.848;2023-02-01T15:33:15;8.05;;;3.67;;
40501;SDS011;29631;49.168;9.848;2023-02-01T15:35:45;16.88;;;9.05;;
40501;SDS011;29631;49.168;9.848;2023-02-01T15:41:01;8.20;;;3.30;;
40501;SDS011;29631;49.168;9.848;2023-02-01T15:43:32;4.88;;;2.80;;
40501;SDS011;29631;49.168;9.848;2023-02-01T15:46:06;7.03;;;3.78;;
40501;SDS011;29631;49.168;9.848;2023-02-01T15:48:49;9.20;;;4.13;;
40501;SDS011;29631;49.168;9.848;2023-02-01T15:51:19;10.07;;;4.50;;
40501;SDS011;29631;49.168;9.848;2023-02-01T15:54:02;7.30;;;3.58;;
40501;SDS011;29631;49.168;9.848;2023-02-01T15:56:40;7.63;;;2.90;;
40501;SDS011;29631;49.168;9.848;2023-02-01T15:59:12;8.57;;;3.50;;
40501;SDS011;29631;49.168;9.848;2023-02-01T16:01:42;5.97;;;2.42;;
40501;SDS011;29631;49.168;9.848;2023-02-01T16:04:21;6.32;;;2.55;;
40501;SDS011;29631;49.168;9.848;2023-02-01T16:06:53;5.18;;;2.10;;
40501;SDS011;29631;49.168;9.848;2023-02-01T16:09:22;3.63;;;2.15;;
40501;SDS011;29631;49.168;9.848;2023-02-01T16:12:00;4.47;;;2.28;;
40501;SDS011;29631;49.168;9.848;2023-02-01T16:14:28;5.43;;;2.13;;
40501;SDS011;29631;49.168;9.848;2023-02-01T16:16:57;5.25;;;2.22;;
40501;SDS011;29631;49.168;9.848;2023-02-01T16:19:23;6.93;;;2.30;;
40501;SDS011;29631;49.168;9.848;2023-02-01T16:21:53;5.32;;;2.92;;
40501;SDS011;29631;49.168;9.848;2023-02-01T16:24:20;4.03;;;2.30;;
40501;SDS011;29631;49.168;9.848;2023-02-01T16:26:48;5.95;;;2.75;;
40501;SDS011;29631;49.168;9.848;2023-02-01T16:29:13;4.97;;;2.28;;
40501;SDS011;29631;49.168;9.848;2023-02-01T16:31:41;5.22;;;2.60;;
40501;SDS011;29631;49.168;9.848;2023-02-01T16:34:11;4.78;;;2.40;;
40501;SDS011;29631;49.168;9.848;2023-02-01T16:36:41;3.75;;;1.88;;
40501;SDS011;29631;49.168;9.848;2023-02-01T16:39:10;4.63;;;2.33;;
40501;SDS011;29631;49.168;9.848;2023-02-01T16:41:37;6.07;;;2.40;;
40501;SDS011;29631;49.168;9.848;2023-02-01T16:44:04;3.97;;;2.25;;
40501;SDS011;29631;49.168;9.848;2023-02-01T16:46:32;7.68;;;2.63;;
40501;SDS011;29631;49.168;9.848;2023-02-01T16:49:04;6.07;;;2.75;;
40501;SDS011;29631;49.168;9.848;2023-02-01T16:51:31;6.05;;;3.08;;
40501;SDS011;29631;49.168;9.848;2023-02-01T16:54:01;11.10;;;4.32;;
40501;SDS011;29631;49.168;9.848;2023-02-01T16:56:31;9.68;;;5.03;;
40501;SDS011;29631;49.168;9.848;2023-02-01T16:58:58;6.45;;;3.33;;
40501;SDS011;29631;49.168;9.848;2023-02-01T17:01:24;6.20;;;2.88;;
40501;SDS011;29631;49.168;9.848;2023-02-01T17:03:50;4.63;;;2.35;;
40501;SDS011;29631;49.168;9.848;2023-02-01T17:06:18;4.57;;;2.60;;
40501;SDS011;29631;49.168;9.848;2023-02-01T17:08:51;5.05;;;2.40;;
40501;SDS011;29631;49.168;9.848;2023-02-01T17:11:20;6.13;;;3.10;;
40501;SDS011;29631;49.168;9.848;2023-02-01T17:13:46;5.90;;;3.05;;
40501;SDS011;29631;49.168;9.848;2023-02-01T17:18:51;7.80;;;3.67;;
40501;SDS011;29631;49.168;9.848;2023-02-01T17:21:35;5.03;;;3.60;;
40501;SDS011;29631;49.168;9.848;2023-02-01T17:24:14;8.88;;;4.90;;
40501;SDS011;29631;49.168;9.848;2023-02-01T17:26:42;7.68;;;3.53;;
40501;SDS011;29631;49.168;9.848;2023-02-01T17:29:09;7.63;;;2.90;;
40501;SDS011;29631;49.168;9.848;2023-02-01T17:31:37;5.70;;;2.45;;
40501;SDS011;29631;49.168;9.848;2023-02-01T17:34:08;6.60;;;2.53;;
40501;SDS011;29631;49.168;9.848;2023-02-01T17:36:44;5.05;;;2.35;;
40501;SDS011;29631;49.168;9.848;2023-02-01T17:39:12;3.90;;;1.85;;
40501;SDS011;29631;49.168;9.848;2023-02-01T17:41:59;4.50;;;2.65;;
40501;SDS011;29631;49.168;9.848;2023-02-01T17:44:26;4.00;;;2.25;;
40501;SDS011;29631;49.168;9.848;2023-02-01T17:46:52;5.95;;;3.30;;
40501;SDS011;29631;49.168;9.848;2023-02-01T17:49:17;5.32;;;2.72;;
40501;SDS011;29631;49.168;9.848;2023-02-01T17:51:43;4.00;;;2.10;;
40501;SDS011;29631;49.168;9.848;2023-02-01T17:54:12;4.60;;;1.90;;
40501;SDS011;29631;49.168;9.848;2023-02-01T17:56:39;4.28;;;2.05;;
40501;SDS011;29631;49.168;9.848;2023-02-01T17:59:04;4.55;;;2.20;;
40501;SDS011;29631;49.168;9.848;2023-02-01T18:01:30;6.25;;;2.03;;
40501;SDS011;29631;49.168;9.848;2023-02-01T18:03:56;6.10;;;2.40;;
40501;SDS011;29631;49.168;9.848;2023-02-01T18:06:23;7.40;;;3.08;;
40501;SDS011;29631;49.168;9.848;2023-02-01T18:08:51;7.97;;;3.20;;
40501;SDS011;29631;49.168;9.848;2023-02-01T18:11:19;5.38;;;3.22;;
40501;SDS011;29631;49.168;9.848;2023-02-01T18:13:47;7.30;;;4.35;;